createdAt,value
2023-01-06T00:01:32.273Z,96145.75
2023-01-06T00:04:35.505Z,96139.59
2023-01-06T00:07:38.677Z,96132.16
2023-01-06T00:10:40.549Z,96132.84
2023-01-06T00:13:42.496Z,96129.47
2023-01-06T00:16:45.859Z,96125.25
2023-01-06T00:19:49.315Z,96123.06
2023-01-06T00:22:51.137Z,96122.72
2023-01-06T00:25:54.349Z,96120.13
2023-01-06T00:28:57.023Z,96115.44
2023-01-06T00:32:00.012Z,96125.25
2023-01-06T00:35:06.612Z,96122.88
2023-01-06T00:38:08.576Z,96122.97
2023-01-06T00:41:13.376Z,96133.31
2023-01-06T00:44:15.320Z,96127.66
2023-01-06T00:47:19.675Z,96126.78
2023-01-06T00:50:23.181Z,96129.22
2023-01-06T00:53:25.024Z,96129.66
2023-01-06T00:56:27.199Z,96128.28
2023-01-06T00:59:30.614Z,96128.00
2023-01-06T01:02:32.598Z,96136.00
2023-01-06T01:05:42.796Z,96121.34
2023-01-06T01:08:44.696Z,96121.09
2023-01-06T01:11:48.902Z,96129.50
2023-01-06T01:14:52.407Z,96122.53
2023-01-06T01:17:55.488Z,96122.91
2023-01-06T01:20:58.921Z,96125.31
2023-01-06T01:24:01.084Z,96124.63
2023-01-06T01:27:05.642Z,96117.38
2023-01-06T01:30:08.316Z,96124.03
2023-01-06T01:33:10.146Z,96123.16
2023-01-06T01:36:16.033Z,96132.03
2023-01-06T01:39:20.898Z,96128.66
2023-01-06T01:42:23.135Z,96132.88
2023-01-06T01:45:29.197Z,96130.00
2023-01-06T01:48:34.233Z,96122.47
2023-01-06T01:51:40.992Z,96125.06
2023-01-06T01:54:43.880Z,96114.47
2023-01-06T01:57:50.045Z,96119.09
2023-01-06T02:00:53.185Z,96107.97
2023-01-06T02:03:55.735Z,96102.97
2023-01-06T02:06:59.504Z,96110.59
2023-01-06T02:10:11.193Z,96107.91
2023-01-06T02:13:13.023Z,96109.47
2023-01-06T02:16:23.929Z,96097.22
2023-01-06T02:20:08.734Z,96095.66
2023-01-06T02:23:45.257Z,96099.59
2023-01-06T02:27:24.773Z,96102.28
2023-01-06T02:31:06.514Z,96091.94
2023-01-06T02:34:19.931Z,96081.88
2023-01-06T02:37:35.657Z,96087.69
2023-01-06T02:40:52.714Z,96083.88
2023-01-06T02:44:01.435Z,96074.22
2023-01-06T02:47:13.124Z,96073.47
2023-01-06T02:50:24.115Z,96067.31
2023-01-06T02:53:34.403Z,96061.94
2023-01-06T02:56:41.642Z,96060.03
2023-01-06T02:59:51.979Z,96051.59
2023-01-06T03:02:57.745Z,96046.66
2023-01-06T03:06:06.237Z,96045.69
2023-01-06T03:09:08.145Z,96044.94
2023-01-06T03:12:19.966Z,96040.06
2023-01-06T03:15:23.903Z,96041.19
2023-01-06T03:18:26.359Z,96037.38
2023-01-06T03:21:36.191Z,96037.75
2023-01-06T03:24:39.303Z,96036.94
2023-01-06T03:27:41.214Z,96033.50
2023-01-06T03:30:48.076Z,96033.81
2023-01-06T03:33:56.982Z,96031.94
2023-01-06T03:37:05.278Z,96022.53
2023-01-06T03:40:20.200Z,96023.69
2023-01-06T03:43:28.847Z,96024.09
2023-01-06T03:46:38.491Z,96021.41
2023-01-06T03:49:49.208Z,96030.72
2023-01-06T03:53:02.632Z,96026.38
2023-01-06T03:56:15.746Z,96028.19
2023-01-06T03:59:21.282Z,96029.75
2023-01-06T04:02:24.408Z,96026.19
2023-01-06T04:05:28.518Z,96020.75
2023-01-06T04:08:33.160Z,96019.25
2023-01-06T04:11:35.312Z,96015.03
2023-01-06T04:14:37.809Z,96016.16
2023-01-06T04:17:40.521Z,96019.69
2023-01-06T04:20:42.758Z,96011.09
2023-01-06T04:23:46.188Z,96004.53
2023-01-06T04:26:49.597Z,95993.25
2023-01-06T04:29:51.704Z,95999.66
2023-01-06T04:32:53.507Z,95992.84
2023-01-06T04:35:55.613Z,95990.75
2023-01-06T04:38:58.864Z,95998.81
2023-01-06T04:42:00.971Z,96001.41
2023-01-06T04:45:02.826Z,95999.03
2023-01-06T04:48:05.444Z,95991.78
2023-01-06T04:51:09.143Z,96000.88
2023-01-06T04:54:12.664Z,95998.94
2023-01-06T04:57:14.668Z,96005.81
2023-01-06T05:00:18.421Z,96009.69
2023-01-06T05:03:20.352Z,96010.19
2023-01-06T05:06:23.728Z,96008.63
2023-01-06T05:09:26.977Z,96015.13
2023-01-06T05:12:31.488Z,96017.03
2023-01-06T05:15:33.321Z,96006.63
2023-01-06T05:18:35.203Z,96016.66
2023-01-06T05:21:37.016Z,96014.81
2023-01-06T05:24:40.895Z,96016.38
2023-01-06T05:27:42.745Z,96020.38
2023-01-06T05:30:46.951Z,96016.56
2023-01-06T05:33:49.970Z,96019.06
2023-01-06T05:36:51.865Z,96013.78
2023-01-06T05:39:55.182Z,96011.19
2023-01-06T05:42:57.565Z,96007.28
2023-01-06T05:46:00.012Z,96011.63
2023-01-06T05:49:02.649Z,96006.06
2023-01-06T05:52:04.754Z,96015.34
2023-01-06T05:55:09.627Z,96030.25
2023-01-06T05:58:11.565Z,96024.63
2023-01-06T06:01:19.086Z,96031.16
2023-01-06T06:04:23.252Z,96023.91
2023-01-06T06:07:25.192Z,96021.91
2023-01-06T06:10:28.455Z,96026.94
2023-01-06T06:13:30.921Z,96023.59
2023-01-06T06:16:32.882Z,96025.13
2023-01-06T06:19:37.267Z,96027.59
2023-01-06T06:22:39.063Z,96025.81
2023-01-06T06:25:43.683Z,96024.44
2023-01-06T06:28:45.570Z,96015.88
2023-01-06T06:31:48.936Z,96026.00
2023-01-06T06:34:50.727Z,96026.78
2023-01-06T06:37:53.920Z,96021.09
2023-01-06T06:40:59.400Z,96023.44
2023-01-06T06:44:01.588Z,96026.47
2023-01-06T06:47:04.842Z,96023.44
2023-01-06T06:50:11.020Z,96027.28
2023-01-06T06:53:14.339Z,96030.81
2023-01-06T06:56:19.310Z,96029.16
2023-01-06T06:59:22.140Z,96025.59
2023-01-06T07:02:26.848Z,96023.47
2023-01-06T07:05:29.209Z,96035.53
2023-01-06T07:08:31.077Z,96033.97
2023-01-06T07:11:34.289Z,96025.28
2023-01-06T07:14:36.617Z,96031.00
2023-01-06T07:17:39.350Z,96025.88
2023-01-06T07:20:41.506Z,96024.97
2023-01-06T07:23:43.889Z,96018.41
2023-01-06T07:26:47.087Z,96022.19
2023-01-06T07:29:48.924Z,96020.31
2023-01-06T07:32:51.358Z,96016.94
2023-01-06T07:35:54.302Z,96018.56
2023-01-06T07:38:56.302Z,96017.44
2023-01-06T07:41:59.473Z,96011.41
2023-01-06T07:45:01.413Z,96020.47
2023-01-06T07:48:06.609Z,96009.72
2023-01-06T07:51:08.477Z,96011.63
2023-01-06T07:54:10.775Z,96006.94
2023-01-06T07:57:16.424Z,96006.16
2023-01-06T08:00:20.382Z,96012.53
2023-01-06T08:03:22.274Z,96013.50
2023-01-06T08:06:29.410Z,96011.72
2023-01-06T08:09:31.375Z,96011.63
2023-01-06T08:12:34.583Z,96005.94
2023-01-06T08:15:40.282Z,96008.50
2023-01-06T08:18:42.093Z,96006.38
2023-01-06T08:21:45.505Z,96000.81
2023-01-06T08:24:47.477Z,96002.22
2023-01-06T08:27:52.225Z,95999.00
2023-01-06T08:30:56.049Z,95996.41
2023-01-06T08:33:58.475Z,95993.06
2023-01-06T08:37:00.324Z,95990.03
2023-01-06T08:40:02.219Z,95990.38
2023-01-06T08:43:05.457Z,95991.25
2023-01-06T08:46:10.828Z,95988.81
2023-01-06T08:49:12.923Z,95994.94
2023-01-06T08:52:14.799Z,95992.16
2023-01-06T08:55:16.643Z,95988.56
2023-01-06T08:58:21.041Z,95987.78
2023-01-06T09:01:24.696Z,95991.25
2023-01-06T09:04:26.631Z,95987.22
2023-01-06T09:07:28.956Z,95991.22
2023-01-06T09:10:31.548Z,95994.56
2023-01-06T09:13:35.588Z,95994.34
2023-01-06T09:16:37.656Z,96004.25
2023-01-06T09:19:39.527Z,95997.19
2023-01-06T09:22:41.885Z,95998.97
2023-01-06T09:25:43.734Z,95996.00
2023-01-06T09:28:48.569Z,95993.88
2023-01-06T09:31:50.497Z,95993.19
2023-01-06T09:34:53.862Z,96000.22
2023-01-06T09:37:55.717Z,95993.03
2023-01-06T09:41:20.520Z,95980.56
2023-01-06T09:44:29.960Z,95980.75
2023-01-06T09:47:41.010Z,95977.91
2023-01-06T09:50:45.688Z,95975.41
2023-01-06T09:53:53.726Z,95971.34
2023-01-06T09:57:03.681Z,95974.53
2023-01-06T10:00:19.386Z,95975.56
2023-01-06T10:03:24.240Z,95979.97
2023-01-06T10:06:32.089Z,95973.09
2023-01-06T10:09:44.061Z,95965.44
2023-01-06T10:12:59.445Z,95963.34
2023-01-06T10:16:10.312Z,95968.47
2023-01-06T10:19:22.768Z,95967.41
2023-01-06T10:22:34.508Z,95951.78
2023-01-06T10:25:41.484Z,95951.69
2023-01-06T10:28:45.031Z,95945.63
2023-01-06T10:31:53.705Z,95947.38
2023-01-06T10:34:57.091Z,95943.63
2023-01-06T10:38:03.928Z,95951.84
2023-01-06T10:41:16.754Z,95947.66
2023-01-06T10:44:20.118Z,95936.59
2023-01-06T10:47:28.052Z,95936.25
2023-01-06T10:50:31.417Z,95937.50
2023-01-06T10:53:35.762Z,95937.22
2023-01-06T10:56:40.151Z,95931.59
2023-01-06T11:00:11.233Z,95934.34
2023-01-06T11:03:32.382Z,95934.47
2023-01-06T11:06:36.500Z,95937.31
2023-01-06T11:09:40.450Z,95927.38
2023-01-06T11:12:49.055Z,95922.06
2023-01-06T11:15:51.374Z,95923.03
2023-01-06T11:18:56.956Z,95924.56
2023-01-06T11:21:58.899Z,95921.69
2023-01-06T11:25:01.436Z,95919.78
2023-01-06T11:28:14.932Z,95907.91
2023-01-06T11:31:23.429Z,95908.84
2023-01-06T11:34:28.284Z,95907.09
2023-01-06T11:37:32.840Z,95909.47
2023-01-06T11:40:37.603Z,95910.81
2023-01-06T11:43:44.118Z,95912.88
2023-01-06T11:46:49.878Z,95913.84
2023-01-06T11:50:08.225Z,95913.56
2023-01-06T11:53:17.064Z,95916.81
2023-01-06T11:56:18.884Z,95916.53
2023-01-06T11:59:26.393Z,95915.41
2023-01-06T12:02:33.476Z,95923.09
2023-01-06T12:05:43.933Z,95916.16
2023-01-06T12:08:51.856Z,95916.22
2023-01-06T12:11:56.031Z,95918.94
2023-01-06T12:14:58.141Z,95907.75
2023-01-06T12:18:05.125Z,95908.25
2023-01-06T12:21:26.471Z,95906.03
2023-01-06T12:24:32.290Z,95910.28
2023-01-06T12:27:38.365Z,95906.09
2023-01-06T12:30:48.703Z,95902.59
2023-01-06T12:33:57.369Z,95899.09
2023-01-06T12:37:10.735Z,95900.38
2023-01-06T12:40:17.090Z,95898.84
2023-01-06T12:43:23.407Z,95892.59
2023-01-06T12:46:32.167Z,95890.78
2023-01-06T12:49:41.400Z,95888.78
2023-01-06T12:52:51.566Z,95888.91
2023-01-06T12:56:07.609Z,95883.38
2023-01-06T12:59:18.480Z,95880.69
2023-01-06T13:02:42.616Z,95878.81
2023-01-06T13:05:54.894Z,95876.44
2023-01-06T13:09:11.033Z,95880.97
2023-01-06T13:12:35.821Z,95882.50
2023-01-06T13:15:43.203Z,95880.91
2023-01-06T13:18:58.649Z,95880.94
2023-01-06T13:22:04.685Z,95888.28
2023-01-06T13:25:43.776Z,95888.75
2023-01-06T13:29:00.485Z,95884.09
2023-01-06T13:32:23.063Z,95882.16
2023-01-06T13:35:39.539Z,95882.16
2023-01-06T13:38:57.668Z,95865.63
2023-01-06T13:42:09.970Z,95868.28
2023-01-06T13:45:19.487Z,95860.97
2023-01-06T13:48:26.543Z,95867.06
2023-01-06T13:51:34.286Z,95874.84
2023-01-06T13:55:08.366Z,95871.00
2023-01-06T13:58:38.559Z,95894.53
2023-01-06T14:01:40.571Z,95892.94
2023-01-06T14:04:52.026Z,95895.59
2023-01-06T14:07:56.339Z,95887.47
2023-01-06T14:11:32.131Z,95900.25
2023-01-06T14:14:40.183Z,95895.50
2023-01-06T14:17:43.894Z,95911.44
2023-01-06T14:20:47.971Z,95913.72
2023-01-06T14:23:52.614Z,95916.34
2023-01-06T14:26:57.495Z,95912.56
2023-01-06T14:30:18.941Z,95910.13
2023-01-06T14:33:31.886Z,95923.59
2023-01-06T14:36:34.670Z,95923.88
2023-01-06T14:39:40.664Z,95929.31
2023-01-06T14:42:45.578Z,95928.84
2023-01-06T14:45:49.714Z,95935.91
2023-01-06T14:48:57.827Z,95930.88
2023-01-06T14:52:10.773Z,95931.50
2023-01-06T14:55:18.174Z,95926.94
2023-01-06T14:58:30.442Z,95935.31
2023-01-06T15:01:35.985Z,95931.38
2023-01-06T15:04:37.990Z,95927.50
2023-01-06T15:07:43.209Z,95931.22
2023-01-06T15:10:48.214Z,95927.28
2023-01-06T15:13:50.190Z,95917.56
2023-01-06T15:17:00.472Z,95919.75
2023-01-06T15:20:02.593Z,95918.84
2023-01-06T15:23:04.844Z,95916.53
2023-01-06T15:26:15.906Z,95919.88
2023-01-06T15:29:19.647Z,95916.75
2023-01-06T15:32:25.707Z,95917.84
2023-01-06T15:35:30.820Z,95919.72
2023-01-06T15:38:35.418Z,95921.09
2023-01-06T15:41:37.883Z,95920.56
2023-01-06T15:44:41.525Z,95925.53
2023-01-06T15:47:47.699Z,95923.56
2023-01-06T15:50:55.229Z,95926.22
2023-01-06T15:53:59.115Z,95919.72
2023-01-06T15:57:15.655Z,95919.22
2023-01-06T16:00:22.479Z,95921.44
2023-01-06T16:03:29.170Z,95920.19
2023-01-06T16:06:33.251Z,95922.84
2023-01-06T16:09:35.571Z,95925.16
2023-01-06T16:12:37.503Z,95922.25
2023-01-06T16:15:48.659Z,95929.19
2023-01-06T16:18:52.175Z,95939.69
2023-01-06T16:21:56.597Z,95941.56
2023-01-06T16:25:00.708Z,95947.66
2023-01-06T16:28:05.941Z,95948.50
2023-01-06T16:31:10.366Z,95949.22
2023-01-06T16:34:24.367Z,95954.91
2023-01-06T16:37:26.580Z,95959.09
2023-01-06T16:40:33.790Z,95958.31
2023-01-06T16:43:35.591Z,95958.84
2023-01-06T16:46:41.452Z,95963.75
2023-01-06T16:49:44.767Z,95964.81
2023-01-06T16:52:52.593Z,95967.06
2023-01-06T16:55:56.219Z,95985.56
2023-01-06T16:58:58.571Z,95974.56
2023-01-06T17:02:12.902Z,95977.63
2023-01-06T17:05:27.949Z,95977.88
2023-01-06T17:08:31.516Z,95988.50
2023-01-06T17:11:35.588Z,95988.22
2023-01-06T17:14:37.871Z,95994.09
2023-01-06T17:17:41.228Z,96000.06
2023-01-06T17:21:03.388Z,95998.16
2023-01-06T17:24:12.075Z,96005.59
2023-01-06T17:27:20.978Z,96000.94
2023-01-06T17:30:26.817Z,96005.22
2023-01-06T17:33:29.103Z,96014.06
2023-01-06T17:36:39.374Z,96014.47
2023-01-06T17:39:45.938Z,96017.25
2023-01-06T17:42:55.210Z,96019.59
2023-01-06T17:45:57.382Z,96016.56
2023-01-06T17:49:06.289Z,96022.66
2023-01-06T17:52:20.859Z,96025.34
2023-01-06T17:55:35.566Z,96020.28
2023-01-06T17:58:39.101Z,96017.59
2023-01-06T18:01:42.549Z,96033.56
2023-01-06T18:04:44.796Z,96038.50
2023-01-06T18:07:49.138Z,96032.00
2023-01-06T18:10:53.456Z,96041.63
2023-01-06T18:13:58.327Z,96041.81
2023-01-06T18:17:16.490Z,96042.59
2023-01-06T18:20:19.757Z,96037.13
2023-01-06T18:23:26.458Z,96028.81
2023-01-06T18:26:36.856Z,96034.78
2023-01-06T18:29:43.130Z,96046.94
2023-01-06T18:32:46.078Z,96045.38
2023-01-06T18:35:48.560Z,96052.53
2023-01-06T18:38:57.386Z,96065.72
2023-01-06T18:42:17.456Z,96053.50
2023-01-06T18:45:25.099Z,96059.50
2023-01-06T18:48:29.826Z,96064.94
2023-01-06T18:51:32.170Z,96065.72
2023-01-06T18:54:46.838Z,96069.13
2023-01-06T18:57:54.940Z,96071.22
2023-01-06T19:00:59.701Z,96066.00
2023-01-06T19:04:05.003Z,96076.69
2023-01-06T19:07:15.331Z,96081.63
2023-01-06T19:10:25.967Z,96077.03
2023-01-06T19:13:29.556Z,96081.97
2023-01-06T19:16:36.272Z,96078.69
2023-01-06T19:19:40.169Z,96081.69
2023-01-06T19:22:43.324Z,96079.53
2023-01-06T19:25:47.188Z,96072.69
2023-01-06T19:28:58.297Z,96072.78
2023-01-06T19:32:06.199Z,96071.91
2023-01-06T19:35:16.110Z,96073.28
2023-01-06T19:38:26.332Z,96071.38
2023-01-06T19:41:31.939Z,96074.06
2023-01-06T19:44:37.873Z,96074.16
2023-01-06T19:47:40.770Z,96078.84
2023-01-06T19:50:45.197Z,96070.53
2023-01-06T19:53:49.730Z,96067.03
2023-01-06T19:56:58.696Z,96073.38
2023-01-06T20:00:02.557Z,96073.47
2023-01-06T20:03:06.559Z,96074.88
2023-01-06T20:06:12.196Z,96068.34
2023-01-06T20:09:14.294Z,96070.63
2023-01-06T20:12:20.127Z,96065.66
2023-01-06T20:15:22.848Z,96062.63
2023-01-06T20:18:25.317Z,96059.84
2023-01-06T20:21:27.572Z,96067.47
2023-01-06T20:24:30.499Z,96067.72
2023-01-06T20:27:33.715Z,96069.72
2023-01-06T20:30:36.300Z,96059.34
2023-01-06T20:33:40.072Z,96065.75
2023-01-06T20:36:42.319Z,96065.84
2023-01-06T20:39:45.108Z,96065.22
2023-01-06T20:42:49.546Z,96063.66
2023-01-06T20:45:53.381Z,96065.31
2023-01-06T20:48:55.756Z,96067.22
2023-01-06T20:51:59.863Z,96071.91
2023-01-06T20:55:02.385Z,96069.66
2023-01-06T20:58:10.886Z,96065.13
2023-01-06T21:01:14.341Z,96066.97
2023-01-06T21:04:16.194Z,96066.59
2023-01-06T21:07:21.945Z,96058.63
2023-01-06T21:10:24.479Z,96056.44
2023-01-06T21:13:29.624Z,96060.63
2023-01-06T21:16:31.727Z,96055.41
2023-01-06T21:19:37.267Z,96057.69
2023-01-06T21:22:39.436Z,96052.19
2023-01-06T21:25:41.695Z,96049.72
2023-01-06T21:28:46.014Z,96045.69
2023-01-06T21:31:48.100Z,96045.63
2023-01-06T21:34:49.923Z,96045.09
2023-01-06T21:37:53.465Z,96045.88
2023-01-06T21:40:57.891Z,96057.16
2023-01-06T21:44:01.665Z,96052.31
2023-01-06T21:47:03.732Z,96048.06
2023-01-06T21:50:06.394Z,96047.69
2023-01-06T21:53:09.811Z,96048.91
2023-01-06T21:56:11.734Z,96043.63
2023-01-06T21:59:20.329Z,96040.94
2023-01-06T22:02:22.671Z,96040.59
2023-01-06T22:05:24.857Z,96041.28
2023-01-06T22:08:30.708Z,96039.19
2023-01-06T22:11:33.657Z,96043.44
2023-01-06T22:14:37.451Z,96040.00
2023-01-06T22:17:42.682Z,96045.00
2023-01-06T22:20:45.659Z,96045.81
2023-01-06T22:23:47.857Z,96045.00
2023-01-06T22:26:53.740Z,96044.66
2023-01-06T22:29:57.598Z,96042.69
2023-01-06T22:32:59.689Z,96045.38
2023-01-06T22:36:03.186Z,96048.50
2023-01-06T22:39:05.727Z,96050.81
2023-01-06T22:42:09.930Z,96048.13
2023-01-06T22:45:13.565Z,96056.28
2023-01-06T22:48:16.827Z,96046.75
2023-01-06T22:51:20.963Z,96043.72
2023-01-06T22:54:22.887Z,96041.81
2023-01-06T22:57:25.780Z,96037.47
2023-01-06T23:00:29.195Z,96040.25
2023-01-06T23:03:31.675Z,96034.19
2023-01-06T23:06:33.586Z,96032.38
2023-01-06T23:09:35.835Z,96028.53
2023-01-06T23:12:38.725Z,96031.31
2023-01-06T23:15:44.944Z,96034.63
2023-01-06T23:18:49.062Z,96032.63
2023-01-06T23:21:52.237Z,96033.50
2023-01-06T23:24:54.122Z,96024.63
2023-01-06T23:27:56.243Z,96019.59
2023-01-06T23:31:04.739Z,96020.66
2023-01-06T23:34:09.769Z,96023.34
2023-01-06T23:37:12.156Z,96025.22
2023-01-06T23:40:14.901Z,96028.63
2023-01-06T23:43:16.763Z,96021.34
2023-01-06T23:46:21.949Z,96022.22
2023-01-06T23:49:23.902Z,96018.47
2023-01-06T23:52:28.364Z,96019.09
2023-01-06T23:55:30.182Z,96008.41
2023-01-06T23:58:35.591Z,96018.03
